sensor_id;sensor_type;location;lat;lon;timestamp;temperature;humidity
19496;DHT22;9888;48.606;9.630;2022-08-24T00:00:36;11.70;99.90
19496;DHT22;9888;48.606;9.630;2022-08-24T00:03:07;11.70;99.90
19496;DHT22;9888;48.606;9.630;2022-08-24T00:05:38;11.70;99.90
19496;DHT22;9888;48.606;9.630;2022-08-24T00:08:06;11.60;99.90
19496;DHT22;9888;48.606;9.630;2022-08-24T00:10:34;11.60;99.90
19496;DHT22;9888;48.606;9.630;2022-08-24T00:13:02;11.60;99.90
19496;DHT22;9888;48.606;9.630;2022-08-24T00:15:30;11.50;99.90
19496;DHT22;9888;48.606;9.630;2022-08-24T00:17:58;11.50;99.90
19496;DHT22;9888;48.606;9.630;2022-08-24T00:20:29;11.40;99.90
19496;DHT22;9888;48.606;9.630;2022-08-24T00:22:57;11.50;99.90
19496;DHT22;9888;48.606;9.630;2022-08-24T00:25:25;11.50;99.90
19496;DHT22;9888;48.606;9.630;2022-08-24T00:27:53;11.40;99.90
19496;DHT22;9888;48.606;9.630;2022-08-24T00:30:21;11.40;99.90
19496;DHT22;9888;48.606;9.630;2022-08-24T00:32:50;11.40;99.90
19496;DHT22;9888;48.606;9.630;2022-08-24T00:35:23;11.30;99.90
19496;DHT22;9888;48.606;9.630;2022-08-24T00:37:52;11.30;99.90
19496;DHT22;9888;48.606;9.630;2022-08-24T00:40:38;11.30;99.90
19496;DHT22;9888;48.606;9.630;2022-08-24T00:43:07;11.30;99.90
19496;DHT22;9888;48.606;9.630;2022-08-24T00:45:48;11.20;99.90
19496;DHT22;9888;48.606;9.630;2022-08-24T00:48:29;11.20;99.90
19496;DHT22;9888;48.606;9.630;2022-08-24T00:51:05;11.20;99.90
19496;DHT22;9888;48.606;9.630;2022-08-24T00:53:39;11.10;99.90
19496;DHT22;9888;48.606;9.630;2022-08-24T00:56:14;11.10;99.90
19496;DHT22;9888;48.606;9.630;2022-08-24T00:59:05;11.10;99.90
19496;DHT22;9888;48.606;9.630;2022-08-24T01:01:37;11.00;99.90
19496;DHT22;9888;48.606;9.630;2022-08-24T01:04:07;11.10;99.90
19496;DHT22;9888;48.606;9.630;2022-08-24T01:06:37;11.00;99.90
19496;DHT22;9888;48.606;9.630;2022-08-24T01:09:05;11.00;99.90
19496;DHT22;9888;48.606;9.630;2022-08-24T01:11:33;11.00;99.90
19496;DHT22;9888;48.606;9.630;2022-08-24T01:14:03;10.80;99.90
19496;DHT22;9888;48.606;9.630;2022-08-24T01:16:30;10.90;99.90
19496;DHT22;9888;48.606;9.630;2022-08-24T01:22:19;10.80;99.90
19496;DHT22;9888;48.606;9.630;2022-08-24T01:24:54;10.80;99.90
19496;DHT22;9888;48.606;9.630;2022-08-24T01:27:33;10.80;99.90
19496;DHT22;9888;48.606;9.630;2022-08-24T01:30:04;10.80;99.90
19496;DHT22;9888;48.606;9.630;2022-08-24T01:32:38;10.70;99.90
19496;DHT22;9888;48.606;9.630;2022-08-24T01:35:07;10.70;99.90
19496;DHT22;9888;48.606;9.630;2022-08-24T01:37:35;10.70;99.90
19496;DHT22;9888;48.606;9.630;2022-08-24T01:40:05;10.70;99.90
19496;DHT22;9888;48.606;9.630;2022-08-24T01:42:35;10.60;99.90
19496;DHT22;9888;48.606;9.630;2022-08-24T01:45:05;10.60;99.90
19496;DHT22;9888;48.606;9.630;2022-08-24T01:47:33;10.50;99.90
19496;DHT22;9888;48.606;9.630;2022-08-24T01:50:08;10.60;99.90
19496;DHT22;9888;48.606;9.630;2022-08-24T01:52:41;10.50;99.90
19496;DHT22;9888;48.606;9.630;2022-08-24T01:55:14;10.50;99.90
19496;DHT22;9888;48.606;9.630;2022-08-24T01:57:47;10.50;99.90
19496;DHT22;9888;48.606;9.630;2022-08-24T02:00:20;10.50;99.90
19496;DHT22;9888;48.606;9.630;2022-08-24T02:02:49;10.50;99.90
19496;DHT22;9888;48.606;9.630;2022-08-24T02:05:20;10.40;99.90
19496;DHT22;9888;48.606;9.630;2022-08-24T02:07:51;10.40;99.90
19496;DHT22;9888;48.606;9.630;2022-08-24T02:10:21;10.40;99.90
19496;DHT22;9888;48.606;9.630;2022-08-24T02:12:49;10.30;99.90
19496;DHT22;9888;48.606;9.630;2022-08-24T02:15:30;10.40;99.90
19496;DHT22;9888;48.606;9.630;2022-08-24T02:18:08;10.40;99.90
19496;DHT22;9888;48.606;9.630;2022-08-24T02:20:39;10.40;99.90
19496;DHT22;9888;48.606;9.630;2022-08-24T02:23:09;10.30;99.90
19496;DHT22;9888;48.606;9.630;2022-08-24T02:25:39;10.30;99.90
19496;DHT22;9888;48.606;9.630;2022-08-24T02:28:07;10.20;99.90
19496;DHT22;9888;48.606;9.630;2022-08-24T02:30:35;10.20;99.90
19496;DHT22;9888;48.606;9.630;2022-08-24T02:33:06;10.20;99.90
19496;DHT22;9888;48.606;9.630;2022-08-24T02:35:34;10.20;99.90
19496;DHT22;9888;48.606;9.630;2022-08-24T02:38:01;10.20;99.90
19496;DHT22;9888;48.606;9.630;2022-08-24T02:40:29;10.20;99.90
19496;DHT22;9888;48.606;9.630;2022-08-24T02:42:58;10.10;99.90
19496;DHT22;9888;48.606;9.630;2022-08-24T02:45:26;10.10;99.90
19496;DHT22;9888;48.606;9.630;2022-08-24T02:47:55;10.20;99.90
19496;DHT22;9888;48.606;9.630;2022-08-24T02:50:25;10.20;99.90
19496;DHT22;9888;48.606;9.630;2022-08-24T02:52:53;10.20;99.90
19496;DHT22;9888;48.606;9.630;2022-08-24T02:55:20;10.10;99.90
19496;DHT22;9888;48.606;9.630;2022-08-24T02:57:50;10.10;99.90
19496;DHT22;9888;48.606;9.630;2022-08-24T03:00:19;10.20;99.90
19496;DHT22;9888;48.606;9.630;2022-08-24T03:02:47;10.10;99.90
19496;DHT22;9888;48.606;9.630;2022-08-24T03:05:17;10.10;99.90
19496;DHT22;9888;48.606;9.630;2022-08-24T03:07:46;10.00;99.90
19496;DHT22;9888;48.606;9.630;2022-08-24T03:10:20;10.00;99.90
19496;DHT22;9888;48.606;9.630;2022-08-24T03:12:48;9.90;99.90
19496;DHT22;9888;48.606;9.630;2022-08-24T03:15:16;9.90;99.90
19496;DHT22;9888;48.606;9.630;2022-08-24T03:17:44;9.90;99.90
19496;DHT22;9888;48.606;9.630;2022-08-24T03:20:14;9.80;99.90
19496;DHT22;9888;48.606;9.630;2022-08-24T03:22:42;9.80;99.90
19496;DHT22;9888;48.606;9.630;2022-08-24T03:25:13;9.80;99.90
19496;DHT22;9888;48.606;9.630;2022-08-24T03:27:41;9.80;99.90
19496;DHT22;9888;48.606;9.630;2022-08-24T03:30:10;9.80;99.90
19496;DHT22;9888;48.606;9.630;2022-08-24T03:32:40;9.90;99.90
19496;DHT22;9888;48.606;9.630;2022-08-24T03:35:09;10.00;99.90
19496;DHT22;9888;48.606;9.630;2022-08-24T03:37:37;10.00;99.90
19496;DHT22;9888;48.606;9.630;2022-08-24T03:40:06;9.90;99.90
19496;DHT22;9888;48.606;9.630;2022-08-24T03:42:34;9.80;99.90
19496;DHT22;9888;48.606;9.630;2022-08-24T03:45:01;9.80;99.90
19496;DHT22;9888;48.606;9.630;2022-08-24T03:47:29;9.80;99.90
19496;DHT22;9888;48.606;9.630;2022-08-24T03:49:57;9.70;99.90
19496;DHT22;9888;48.606;9.630;2022-08-24T03:52:25;9.70;99.90
19496;DHT22;9888;48.606;9.630;2022-08-24T03:54:54;9.70;99.90
19496;DHT22;9888;48.606;9.630;2022-08-24T03:57:21;9.70;99.90
19496;DHT22;9888;48.606;9.630;2022-08-24T03:59:49;9.70;99.90
19496;DHT22;9888;48.606;9.630;2022-08-24T04:02:17;9.70;99.90
19496;DHT22;9888;48.606;9.630;2022-08-24T04:04:45;9.80;99.90
19496;DHT22;9888;48.606;9.630;2022-08-24T04:07:12;9.70;99.90
19496;DHT22;9888;48.606;9.630;2022-08-24T04:09:41;9.70;99.90
19496;DHT22;9888;48.606;9.630;2022-08-24T04:12:10;9.70;99.90
19496;DHT22;9888;48.606;9.630;2022-08-24T04:14:38;9.60;99.90
19496;DHT22;9888;48.606;9.630;2022-08-24T04:17:06;9.60;99.90
19496;DHT22;9888;48.606;9.630;2022-08-24T04:19:34;9.50;99.90
19496;DHT22;9888;48.606;9.630;2022-08-24T04:22:04;9.50;99.90
19496;DHT22;9888;48.606;9.630;2022-08-24T04:24:32;9.50;99.90
19496;DHT22;9888;48.606;9.630;2022-08-24T04:27:00;9.50;99.90
19496;DHT22;9888;48.606;9.630;2022-08-24T04:29:28;9.40;99.90
19496;DHT22;9888;48.606;9.630;2022-08-24T04:31:58;9.40;99.90
19496;DHT22;9888;48.606;9.630;2022-08-24T04:34:26;9.40;99.90
19496;DHT22;9888;48.606;9.630;2022-08-24T04:36:54;9.50;99.90
19496;DHT22;9888;48.606;9.630;2022-08-24T04:39:29;9.50;99.90
19496;DHT22;9888;48.606;9.630;2022-08-24T04:42:00;9.50;99.90
19496;DHT22;9888;48.606;9.630;2022-08-24T04:44:29;9.60;99.90
19496;DHT22;9888;48.606;9.630;2022-08-24T04:46:57;9.50;99.90
19496;DHT22;9888;48.606;9.630;2022-08-24T04:49:26;9.50;99.90
19496;DHT22;9888;48.606;9.630;2022-08-24T04:51:53;9.50;99.90
19496;DHT22;9888;48.606;9.630;2022-08-24T04:54:23;9.50;99.90
19496;DHT22;9888;48.606;9.630;2022-08-24T04:56:59;9.50;99.90
19496;DHT22;9888;48.606;9.630;2022-08-24T04:59:29;9.70;99.90
19496;DHT22;9888;48.606;9.630;2022-08-24T05:01:57;9.80;99.90
19496;DHT22;9888;48.606;9.630;2022-08-24T05:04:25;9.80;99.90
19496;DHT22;9888;48.606;9.630;2022-08-24T05:06:54;9.90;99.90
19496;DHT22;9888;48.606;9.630;2022-08-24T05:09:21;9.90;99.90
19496;DHT22;9888;48.606;9.630;2022-08-24T05:11:50;10.00;99.90
19496;DHT22;9888;48.606;9.630;2022-08-24T05:14:19;10.10;99.90
19496;DHT22;9888;48.606;9.630;2022-08-24T05:16:47;10.30;99.90
19496;DHT22;9888;48.606;9.630;2022-08-24T05:19:15;10.40;99.90
19496;DHT22;9888;48.606;9.630;2022-08-24T05:21:43;10.60;99.90
19496;DHT22;9888;48.606;9.630;2022-08-24T05:24:19;10.70;99.90
19496;DHT22;9888;48.606;9.630;2022-08-24T05:26:48;10.90;99.90
19496;DHT22;9888;48.606;9.630;2022-08-24T05:29:19;11.10;99.90
19496;DHT22;9888;48.606;9.630;2022-08-24T05:31:49;11.20;99.90
19496;DHT22;9888;48.606;9.630;2022-08-24T05:34:17;11.40;99.90
19496;DHT22;9888;48.606;9.630;2022-08-24T05:36:45;11.60;99.90
19496;DHT22;9888;48.606;9.630;2022-08-24T05:39:14;11.80;99.90
19496;DHT22;9888;48.606;9.630;2022-08-24T05:41:53;12.00;99.90
19496;DHT22;9888;48.606;9.630;2022-08-24T05:47:44;12.30;99.90
19496;DHT22;9888;48.606;9.630;2022-08-24T05:50:16;12.40;99.90
19496;DHT22;9888;48.606;9.630;2022-08-24T05:52:44;12.60;99.90
19496;DHT22;9888;48.606;9.630;2022-08-24T05:55:15;12.70;99.90
19496;DHT22;9888;48.606;9.630;2022-08-24T05:57:44;12.90;99.90
19496;DHT22;9888;48.606;9.630;2022-08-24T06:00:13;13.10;99.90
19496;DHT22;9888;48.606;9.630;2022-08-24T06:02:41;13.20;99.90
19496;DHT22;9888;48.606;9.630;2022-08-24T06:05:10;13.40;99.90
19496;DHT22;9888;48.606;9.630;2022-08-24T06:07:41;13.50;99.90
19496;DHT22;9888;48.606;9.630;2022-08-24T06:10:15;13.70;99.90
19496;DHT22;9888;48.606;9.630;2022-08-24T06:12:45;13.90;99.90
19496;DHT22;9888;48.606;9.630;2022-08-24T06:15:14;14.10;99.90
19496;DHT22;9888;48.606;9.630;2022-08-24T06:17:43;14.30;99.90
19496;DHT22;9888;48.606;9.630;2022-08-24T06:20:11;14.40;99.90
19496;DHT22;9888;48.606;9.630;2022-08-24T06:22:40;14.60;99.90
19496;DHT22;9888;48.606;9.630;2022-08-24T06:25:11;14.80;99.90
19496;DHT22;9888;48.606;9.630;2022-08-24T06:27:58;15.00;99.90
19496;DHT22;9888;48.606;9.630;2022-08-24T06:30:31;15.20;99.90
19496;DHT22;9888;48.606;9.630;2022-08-24T06:33:01;15.40;99.90
19496;DHT22;9888;48.606;9.630;2022-08-24T06:35:32;15.60;99.90
19496;DHT22;9888;48.606;9.630;2022-08-24T06:38:12;15.80;99.90
19496;DHT22;9888;48.606;9.630;2022-08-24T06:40:44;16.00;99.90
19496;DHT22;9888;48.606;9.630;2022-08-24T06:43:13;16.20;99.90
19496;DHT22;9888;48.606;9.630;2022-08-24T06:45:42;16.40;99.90
19496;DHT22;9888;48.606;9.630;2022-08-24T06:48:39;16.60;99.90
19496;DHT22;9888;48.606;9.630;2022-08-24T06:51:12;16.80;99.90
19496;DHT22;9888;48.606;9.630;2022-08-24T06:53:49;17.00;99.90
19496;DHT22;9888;48.606;9.630;2022-08-24T06:56:39;17.10;99.90
19496;DHT22;9888;48.606;9.630;2022-08-24T06:59:35;17.30;99.90
19496;DHT22;9888;48.606;9.630;2022-08-24T07:02:06;17.60;99.90
19496;DHT22;9888;48.606;9.630;2022-08-24T07:04:34;17.80;99.90
19496;DHT22;9888;48.606;9.630;2022-08-24T07:07:07;17.90;99.90
19496;DHT22;9888;48.606;9.630;2022-08-24T07:09:38;18.20;99.90
19496;DHT22;9888;48.606;9.630;2022-08-24T07:12:06;18.40;99.90
19496;DHT22;9888;48.606;9.630;2022-08-24T07:14:36;18.60;99.90
19496;DHT22;9888;48.606;9.630;2022-08-24T07:17:05;18.80;99.90
19496;DHT22;9888;48.606;9.630;2022-08-24T07:19:33;19.10;99.90
19496;DHT22;9888;48.606;9.630;2022-08-24T07:22:02;19.40;99.90
19496;DHT22;9888;48.606;9.630;2022-08-24T07:24:32;19.60;99.90
19496;DHT22;9888;48.606;9.630;2022-08-24T07:27:08;19.80;99.90
19496;DHT22;9888;48.606;9.630;2022-08-24T07:29:52;20.10;99.90
19496;DHT22;9888;48.606;9.630;2022-08-24T07:32:20;20.30;99.90
19496;DHT22;9888;48.606;9.630;2022-08-24T07:35:00;20.60;99.90
19496;DHT22;9888;48.606;9.630;2022-08-24T07:37:29;20.90;99.90
19496;DHT22;9888;48.606;9.630;2022-08-24T07:39:59;21.20;99.90
19496;DHT22;9888;48.606;9.630;2022-08-24T07:42:55;21.50;99.90
19496;DHT22;9888;48.606;9.630;2022-08-24T07:45:27;21.80;99.90
19496;DHT22;9888;48.606;9.630;2022-08-24T07:47:58;22.10;99.90
19496;DHT22;9888;48.606;9.630;2022-08-24T07:50:30;22.30;99.90
19496;DHT22;9888;48.606;9.630;2022-08-24T07:52:57;22.40;99.90
19496;DHT22;9888;48.606;9.630;2022-08-24T07:55:29;22.60;99.90
19496;DHT22;9888;48.606;9.630;2022-08-24T07:58:01;22.80;99.90
19496;DHT22;9888;48.606;9.630;2022-08-24T08:03:55;23.30;99.90
19496;DHT22;9888;48.606;9.630;2022-08-24T08:06:23;23.60;99.90
19496;DHT22;9888;48.606;9.630;2022-08-24T08:09:05;23.80;99.90
19496;DHT22;9888;48.606;9.630;2022-08-24T08:15:03;24.10;99.90
19496;DHT22;9888;48.606;9.630;2022-08-24T08:17:36;24.30;99.90
19496;DHT22;9888;48.606;9.630;2022-08-24T08:20:07;24.40;99.90
19496;DHT22;9888;48.606;9.630;2022-08-24T08:22:35;24.60;99.90
19496;DHT22;9888;48.606;9.630;2022-08-24T08:25:21;24.70;99.90
19496;DHT22;9888;48.606;9.630;2022-08-24T08:27:51;24.70;99.90
19496;DHT22;9888;48.606;9.630;2022-08-24T08:30:18;24.80;99.90
19496;DHT22;9888;48.606;9.630;2022-08-24T08:32:57;24.80;99.90
19496;DHT22;9888;48.606;9.630;2022-08-24T08:35:26;24.80;99.90
19496;DHT22;9888;48.606;9.630;2022-08-24T08:37:57;24.90;99.90
19496;DHT22;9888;48.606;9.630;2022-08-24T08:43:43;25.10;99.90
19496;DHT22;9888;48.606;9.630;2022-08-24T08:58:52;25.80;99.90
19496;DHT22;9888;48.606;9.630;2022-08-24T09:04:49;26.00;99.90
19496;DHT22;9888;48.606;9.630;2022-08-24T12:39:18;42.50;65.30
19496;DHT22;9888;48.606;9.630;2022-08-24T12:44:59;41.00;66.80
19496;DHT22;9888;48.606;9.630;2022-08-24T12:50:13;41.20;66.40
19496;DHT22;9888;48.606;9.630;2022-08-24T12:55:40;41.60;65.00
19496;DHT22;9888;48.606;9.630;2022-08-24T12:58:51;40.70;66.30
19496;DHT22;9888;48.606;9.630;2022-08-24T13:01:29;40.60;64.30
19496;DHT22;9888;48.606;9.630;2022-08-24T13:07:07;41.20;67.40
19496;DHT22;9888;48.606;9.630;2022-08-24T13:31:01;40.90;68.00
19496;DHT22;9888;48.606;9.630;2022-08-24T13:33:39;41.80;64.40
19496;DHT22;9888;48.606;9.630;2022-08-24T14:02:40;36.90;69.50
19496;DHT22;9888;48.606;9.630;2022-08-24T14:05:35;35.50;71.30
19496;DHT22;9888;48.606;9.630;2022-08-24T14:08:14;34.90;72.70
19496;DHT22;9888;48.606;9.630;2022-08-24T14:11:10;34.10;74.50
19496;DHT22;9888;48.606;9.630;2022-08-24T14:16:31;31.60;78.60
19496;DHT22;9888;48.606;9.630;2022-08-24T14:25:31;35.70;74.60
19496;DHT22;9888;48.606;9.630;2022-08-24T14:35:43;39.50;67.60
19496;DHT22;9888;48.606;9.630;2022-08-24T14:38:30;39.40;69.30
19496;DHT22;9888;48.606;9.630;2022-08-24T14:41:46;38.80;67.10
19496;DHT22;9888;48.606;9.630;2022-08-24T14:44:09;37.80;68.20
19496;DHT22;9888;48.606;9.630;2022-08-24T14:47:03;37.40;70.40
19496;DHT22;9888;48.606;9.630;2022-08-24T14:58:08;39.60;69.50
19496;DHT22;9888;48.606;9.630;2022-08-24T15:09:12;38.40;68.60
19496;DHT22;9888;48.606;9.630;2022-08-24T15:11:45;36.90;72.60
19496;DHT22;9888;48.606;9.630;2022-08-24T15:14:25;35.40;73.80
19496;DHT22;9888;48.606;9.630;2022-08-24T15:17:10;34.20;75.50
19496;DHT22;9888;48.606;9.630;2022-08-24T15:23:00;34.40;76.00
19496;DHT22;9888;48.606;9.630;2022-08-24T15:25:54;34.20;76.10
19496;DHT22;9888;48.606;9.630;2022-08-24T15:28:28;33.30;77.10
19496;DHT22;9888;48.606;9.630;2022-08-24T15:31:06;32.50;80.30
19496;DHT22;9888;48.606;9.630;2022-08-24T15:34:02;32.80;83.50
19496;DHT22;9888;48.606;9.630;2022-08-24T15:36:32;33.40;78.70
19496;DHT22;9888;48.606;9.630;2022-08-24T15:39:05;33.40;80.30
19496;DHT22;9888;48.606;9.630;2022-08-24T15:41:39;32.90;80.20
19496;DHT22;9888;48.606;9.630;2022-08-24T15:44:25;32.50;81.20
19496;DHT22;9888;48.606;9.630;2022-08-24T15:55:06;29.70;87.80
19496;DHT22;9888;48.606;9.630;2022-08-24T15:57:40;29.20;89.40
19496;DHT22;9888;48.606;9.630;2022-08-24T16:00:14;28.60;91.10
19496;DHT22;9888;48.606;9.630;2022-08-24T16:09:13;30.30;90.10
19496;DHT22;9888;48.606;9.630;2022-08-24T16:11:47;30.80;87.40
19496;DHT22;9888;48.606;9.630;2022-08-24T16:14:27;31.30;85.80
19496;DHT22;9888;48.606;9.630;2022-08-24T16:17:16;31.00;86.70
19496;DHT22;9888;48.606;9.630;2022-08-24T16:19:54;30.60;86.70
19496;DHT22;9888;48.606;9.630;2022-08-24T16:22:52;30.60;88.70
19496;DHT22;9888;48.606;9.630;2022-08-24T16:25:26;30.70;89.50
19496;DHT22;9888;48.606;9.630;2022-08-24T16:28:05;31.30;88.20
19496;DHT22;9888;48.606;9.630;2022-08-24T16:30:53;31.50;85.10
19496;DHT22;9888;48.606;9.630;2022-08-24T16:33:44;31.60;87.70
19496;DHT22;9888;48.606;9.630;2022-08-24T16:36:20;31.80;84.80
19496;DHT22;9888;48.606;9.630;2022-08-24T16:38:50;32.00;83.80
19496;DHT22;9888;48.606;9.630;2022-08-24T16:41:21;31.90;82.60
19496;DHT22;9888;48.606;9.630;2022-08-24T16:47:16;32.00;82.20
19496;DHT22;9888;48.606;9.630;2022-08-24T16:53:13;30.70;85.30
19496;DHT22;9888;48.606;9.630;2022-08-24T16:55:42;29.90;86.80
19496;DHT22;9888;48.606;9.630;2022-08-24T16:58:20;29.80;88.70
19496;DHT22;9888;48.606;9.630;2022-08-24T17:00:50;29.90;89.60
19496;DHT22;9888;48.606;9.630;2022-08-24T17:03:33;30.30;89.00
19496;DHT22;9888;48.606;9.630;2022-08-24T17:06:00;30.50;89.00
19496;DHT22;9888;48.606;9.630;2022-08-24T17:08:31;30.30;89.90
19496;DHT22;9888;48.606;9.630;2022-08-24T17:11:01;29.80;88.80
19496;DHT22;9888;48.606;9.630;2022-08-24T17:13:33;28.90;89.60
19496;DHT22;9888;48.606;9.630;2022-08-24T17:16:02;28.20;90.80
19496;DHT22;9888;48.606;9.630;2022-08-24T17:18:30;27.80;91.30
19496;DHT22;9888;48.606;9.630;2022-08-24T17:21:07;27.50;92.10
19496;DHT22;9888;48.606;9.630;2022-08-24T17:23:36;27.20;93.50
19496;DHT22;9888;48.606;9.630;2022-08-24T17:29:31;26.60;93.10
19496;DHT22;9888;48.606;9.630;2022-08-24T17:32:17;26.50;93.50
19496;DHT22;9888;48.606;9.630;2022-08-24T17:35:09;26.10;93.90
19496;DHT22;9888;48.606;9.630;2022-08-24T17:37:47;25.80;94.50
19496;DHT22;9888;48.606;9.630;2022-08-24T17:40:22;25.50;95.30
19496;DHT22;9888;48.606;9.630;2022-08-24T17:43:05;25.10;95.80
19496;DHT22;9888;48.606;9.630;2022-08-24T17:45:34;24.80;96.70
19496;DHT22;9888;48.606;9.630;2022-08-24T17:48:11;24.50;97.50
19496;DHT22;9888;48.606;9.630;2022-08-24T17:50:51;24.20;97.90
19496;DHT22;9888;48.606;9.630;2022-08-24T17:57:05;23.70;99.70
19496;DHT22;9888;48.606;9.630;2022-08-24T17:59:43;23.30;99.90
19496;DHT22;9888;48.606;9.630;2022-08-24T18:02:43;23.10;99.90
19496;DHT22;9888;48.606;9.630;2022-08-24T18:05:11;23.00;99.90
19496;DHT22;9888;48.606;9.630;2022-08-24T18:07:48;22.70;99.90
19496;DHT22;9888;48.606;9.630;2022-08-24T18:10:21;22.50;99.90
19496;DHT22;9888;48.606;9.630;2022-08-24T18:12:49;22.20;99.90
19496;DHT22;9888;48.606;9.630;2022-08-24T18:15:17;21.80;99.90
19496;DHT22;9888;48.606;9.630;2022-08-24T18:17:47;21.60;99.90
19496;DHT22;9888;48.606;9.630;2022-08-24T18:20:26;21.30;99.90
19496;DHT22;9888;48.606;9.630;2022-08-24T18:22:57;21.10;99.90
19496;DHT22;9888;48.606;9.630;2022-08-24T18:25:27;20.80;99.90
19496;DHT22;9888;48.606;9.630;2022-08-24T18:27:57;20.60;99.90
19496;DHT22;9888;48.606;9.630;2022-08-24T18:30:30;20.50;99.90
19496;DHT22;9888;48.606;9.630;2022-08-24T18:32:59;20.30;99.90
19496;DHT22;9888;48.606;9.630;2022-08-24T18:35:31;20.10;99.90
19496;DHT22;9888;48.606;9.630;2022-08-24T18:38:00;19.90;99.90
19496;DHT22;9888;48.606;9.630;2022-08-24T18:40:28;19.80;99.90
19496;DHT22;9888;48.606;9.630;2022-08-24T18:42:56;19.60;99.90
19496;DHT22;9888;48.606;9.630;2022-08-24T18:45:30;19.50;99.90
19496;DHT22;9888;48.606;9.630;2022-08-24T18:47:58;19.30;99.90
19496;DHT22;9888;48.606;9.630;2022-08-24T18:50:26;19.10;99.90
19496;DHT22;9888;48.606;9.630;2022-08-24T18:53:01;19.00;99.90
19496;DHT22;9888;48.606;9.630;2022-08-24T18:55:29;18.90;99.90
19496;DHT22;9888;48.606;9.630;2022-08-24T18:57:57;18.70;99.90
19496;DHT22;9888;48.606;9.630;2022-08-24T19:00:27;18.70;99.90
19496;DHT22;9888;48.606;9.630;2022-08-24T19:03:01;18.60;99.90
19496;DHT22;9888;48.606;9.630;2022-08-24T19:05:31;18.60;99.90
19496;DHT22;9888;48.606;9.630;2022-08-24T19:07:59;18.60;99.90
19496;DHT22;9888;48.606;9.630;2022-08-24T19:10:32;18.60;99.90
19496;DHT22;9888;48.606;9.630;2022-08-24T19:13:08;18.70;99.90
19496;DHT22;9888;48.606;9.630;2022-08-24T19:15:36;18.70;99.90
19496;DHT22;9888;48.606;9.630;2022-08-24T19:18:05;18.80;99.90
19496;DHT22;9888;48.606;9.630;2022-08-24T19:20:33;18.90;99.90
19496;DHT22;9888;48.606;9.630;2022-08-24T19:23:09;18.90;99.90
19496;DHT22;9888;48.606;9.630;2022-08-24T19:25:43;18.90;99.90
19496;DHT22;9888;48.606;9.630;2022-08-24T19:28:22;18.80;99.90
19496;DHT22;9888;48.606;9.630;2022-08-24T19:30:57;18.80;99.90
19496;DHT22;9888;48.606;9.630;2022-08-24T19:33:51;18.70;99.90
19496;DHT22;9888;48.606;9.630;2022-08-24T19:36:18;18.60;99.90
19496;DHT22;9888;48.606;9.630;2022-08-24T19:38:48;18.50;99.90
19496;DHT22;9888;48.606;9.630;2022-08-24T19:41:20;18.40;99.90
19496;DHT22;9888;48.606;9.630;2022-08-24T19:43:51;18.30;99.90
19496;DHT22;9888;48.606;9.630;2022-08-24T19:46:39;18.30;99.90
19496;DHT22;9888;48.606;9.630;2022-08-24T19:49:08;18.20;99.90
19496;DHT22;9888;48.606;9.630;2022-08-24T19:51:37;18.10;99.90
19496;DHT22;9888;48.606;9.630;2022-08-24T19:54:06;18.00;99.90
19496;DHT22;9888;48.606;9.630;2022-08-24T19:56:34;17.90;99.90
19496;DHT22;9888;48.606;9.630;2022-08-24T19:59:06;17.90;99.90
19496;DHT22;9888;48.606;9.630;2022-08-24T20:01:36;17.80;99.90
19496;DHT22;9888;48.606;9.630;2022-08-24T20:04:05;17.70;99.90
19496;DHT22;9888;48.606;9.630;2022-08-24T20:06:34;17.60;99.90
19496;DHT22;9888;48.606;9.630;2022-08-24T20:09:04;17.50;99.90
19496;DHT22;9888;48.606;9.630;2022-08-24T20:11:34;17.40;99.90
19496;DHT22;9888;48.606;9.630;2022-08-24T20:17:25;17.40;99.90
19496;DHT22;9888;48.606;9.630;2022-08-24T20:19:56;17.30;99.90
19496;DHT22;9888;48.606;9.630;2022-08-24T20:22:27;17.20;99.90
19496;DHT22;9888;48.606;9.630;2022-08-24T20:24:57;17.10;99.90
19496;DHT22;9888;48.606;9.630;2022-08-24T20:27:26;17.10;99.90
19496;DHT22;9888;48.606;9.630;2022-08-24T20:29:56;17.00;99.90
19496;DHT22;9888;48.606;9.630;2022-08-24T20:32:26;17.00;99.90
19496;DHT22;9888;48.606;9.630;2022-08-24T20:34:59;17.00;99.90
19496;DHT22;9888;48.606;9.630;2022-08-24T20:37:32;16.90;99.90
19496;DHT22;9888;48.606;9.630;2022-08-24T20:40:05;16.90;99.90
19496;DHT22;9888;48.606;9.630;2022-08-24T20:42:34;16.80;99.90
19496;DHT22;9888;48.606;9.630;2022-08-24T20:45:02;16.70;99.90
19496;DHT22;9888;48.606;9.630;2022-08-24T20:47:29;16.60;99.90
19496;DHT22;9888;48.606;9.630;2022-08-24T20:49:59;16.50;99.90
19496;DHT22;9888;48.606;9.630;2022-08-24T20:52:26;16.50;99.90
19496;DHT22;9888;48.606;9.630;2022-08-24T20:55:21;16.50;99.90
19496;DHT22;9888;48.606;9.630;2022-08-24T20:57:53;16.40;99.90
19496;DHT22;9888;48.606;9.630;2022-08-24T21:00:29;16.30;99.90
19496;DHT22;9888;48.606;9.630;2022-08-24T21:03:00;16.30;99.90
19496;DHT22;9888;48.606;9.630;2022-08-24T21:05:30;16.20;99.90
19496;DHT22;9888;48.606;9.630;2022-08-24T21:08:11;16.20;99.90
19496;DHT22;9888;48.606;9.630;2022-08-24T21:10:43;16.20;99.90
19496;DHT22;9888;48.606;9.630;2022-08-24T21:13:12;16.10;99.90
19496;DHT22;9888;48.606;9.630;2022-08-24T21:15:47;16.00;99.90
19496;DHT22;9888;48.606;9.630;2022-08-24T21:18:15;16.00;99.90
19496;DHT22;9888;48.606;9.630;2022-08-24T21:20:44;16.00;99.90
19496;DHT22;9888;48.606;9.630;2022-08-24T21:23:12;15.90;99.90
19496;DHT22;9888;48.606;9.630;2022-08-24T21:25:39;15.80;99.90
19496;DHT22;9888;48.606;9.630;2022-08-24T21:28:07;15.80;99.90
19496;DHT22;9888;48.606;9.630;2022-08-24T21:30:34;15.70;99.90
19496;DHT22;9888;48.606;9.630;2022-08-24T21:33:04;15.60;99.90
19496;DHT22;9888;48.606;9.630;2022-08-24T21:35:49;15.60;99.90
19496;DHT22;9888;48.606;9.630;2022-08-24T21:38:20;15.60;99.90
19496;DHT22;9888;48.606;9.630;2022-08-24T21:40:49;15.50;99.90
19496;DHT22;9888;48.606;9.630;2022-08-24T21:43:17;15.60;99.90
19496;DHT22;9888;48.606;9.630;2022-08-24T21:45:49;15.50;99.90
19496;DHT22;9888;48.606;9.630;2022-08-24T21:48:19;15.50;99.90
19496;DHT22;9888;48.606;9.630;2022-08-24T21:50:56;15.40;99.90
19496;DHT22;9888;48.606;9.630;2022-08-24T21:53:25;15.40;99.90
19496;DHT22;9888;48.606;9.630;2022-08-24T21:55:54;15.30;99.90
19496;DHT22;9888;48.606;9.630;2022-08-24T22:12:17;15.20;99.90
19496;DHT22;9888;48.606;9.630;2022-08-24T22:14:48;15.20;99.90
19496;DHT22;9888;48.606;9.630;2022-08-24T22:17:20;15.20;99.90
19496;DHT22;9888;48.606;9.630;2022-08-24T22:19:47;15.20;99.90
19496;DHT22;9888;48.606;9.630;2022-08-24T22:22:15;15.20;99.90
19496;DHT22;9888;48.606;9.630;2022-08-24T22:24:43;15.20;99.90
19496;DHT22;9888;48.606;9.630;2022-08-24T22:27:11;15.10;99.90
19496;DHT22;9888;48.606;9.630;2022-08-24T22:29:57;15.10;99.90
19496;DHT22;9888;48.606;9.630;2022-08-24T22:32:27;15.10;99.90
19496;DHT22;9888;48.606;9.630;2022-08-24T22:34:55;15.20;99.90
19496;DHT22;9888;48.606;9.630;2022-08-24T22:37:23;15.30;99.90
19496;DHT22;9888;48.606;9.630;2022-08-24T22:39:51;15.30;99.90
19496;DHT22;9888;48.606;9.630;2022-08-24T22:42:19;15.30;99.90
19496;DHT22;9888;48.606;9.630;2022-08-24T22:44:46;15.30;99.90
19496;DHT22;9888;48.606;9.630;2022-08-24T22:47:14;15.30;99.90